createdAt,value
2023-04-05T00:00:54.934Z,12.17
2023-04-05T00:03:23.169Z,11.20
2023-04-05T00:05:50.988Z,11.47
2023-04-05T00:08:23.713Z,12.83
2023-04-05T00:10:51.825Z,12.87
2023-04-05T00:13:19.561Z,11.60
2023-04-05T00:15:47.976Z,12.73
2023-04-05T00:18:21.769Z,12.70
2023-04-05T00:20:49.733Z,12.60
2023-04-05T00:23:17.672Z,14.47
2023-04-05T00:25:55.946Z,13.50
2023-04-05T00:28:24.599Z,11.00
2023-04-05T00:30:53.364Z,13.77
2023-04-05T00:33:21.120Z,11.97
2023-04-05T00:35:48.882Z,12.93
2023-04-05T00:38:16.817Z,14.60
2023-04-05T00:40:45.884Z,12.57
2023-04-05T00:43:13.596Z,13.77
2023-04-05T00:45:41.482Z,15.50
2023-04-05T00:48:09.829Z,16.07
2023-04-05T00:50:39.147Z,15.63
2023-04-05T00:53:07.199Z,17.33
2023-04-05T00:55:34.998Z,17.23
2023-04-05T00:58:04.131Z,16.53
2023-04-05T01:00:31.832Z,17.03
2023-04-05T01:03:02.117Z,17.63
2023-04-05T01:05:38.340Z,12.60
2023-04-05T01:08:14.890Z,21.27
2023-04-05T01:10:47.526Z,17.03
2023-04-05T01:13:18.653Z,18.37
2023-04-05T01:15:46.740Z,18.10
2023-04-05T01:18:14.936Z,13.33
2023-04-05T01:20:52.877Z,15.33
2023-04-05T01:23:38.960Z,15.50
2023-04-05T01:26:47.329Z,17.30
2023-04-05T01:29:57.007Z,16.83
2023-04-05T01:32:51.944Z,16.60
2023-04-05T01:35:25.810Z,15.10
2023-04-05T01:38:00.375Z,16.20
2023-04-05T01:40:28.914Z,12.60
2023-04-05T01:42:56.667Z,10.77
2023-04-05T01:45:24.412Z,14.77
2023-04-05T01:47:53.511Z,16.90
2023-04-05T01:50:21.655Z,10.83
2023-04-05T01:52:49.400Z,13.30
2023-04-05T01:55:17.332Z,12.80
2023-04-05T01:57:45.208Z,11.70
2023-04-05T02:00:14.018Z,14.67
2023-04-05T02:02:41.991Z,13.60
2023-04-05T02:05:11.198Z,12.60
2023-04-05T02:07:38.999Z,10.90
2023-04-05T02:10:07.869Z,12.07
2023-04-05T02:12:35.680Z,11.83
2023-04-05T02:15:03.996Z,11.73
2023-04-05T02:17:34.097Z,11.10
2023-04-05T02:20:10.268Z,10.30
2023-04-05T02:22:40.048Z,12.47
2023-04-05T02:25:09.665Z,12.40
2023-04-05T02:27:37.615Z,10.87
2023-04-05T02:30:06.322Z,10.20
2023-04-05T02:32:34.372Z,11.20
2023-04-05T02:35:02.579Z,10.87
2023-04-05T02:37:30.364Z,10.60
2023-04-05T02:39:59.401Z,11.17
2023-04-05T02:42:27.761Z,9.40
2023-04-05T02:44:55.747Z,15.30
2023-04-05T02:47:23.631Z,10.07
2023-04-05T02:49:51.390Z,8.83
2023-04-05T02:52:19.102Z,8.90
2023-04-05T02:54:46.882Z,10.23
2023-04-05T02:57:16.194Z,9.03
2023-04-05T02:59:44.083Z,7.97
2023-04-05T03:02:12.140Z,10.37
2023-04-05T03:04:40.980Z,11.00
2023-04-05T03:07:10.418Z,9.67
2023-04-05T03:09:38.528Z,8.67
2023-04-05T03:12:06.521Z,7.53
2023-04-05T03:14:35.856Z,10.83
2023-04-05T03:17:03.669Z,7.00
2023-04-05T03:19:32.172Z,9.37
2023-04-05T03:21:59.869Z,11.00
2023-04-05T03:24:27.595Z,6.90
2023-04-05T03:26:55.352Z,10.50
2023-04-05T03:29:23.061Z,7.53
2023-04-05T03:31:52.278Z,8.73
2023-04-05T03:34:22.144Z,7.97
2023-04-05T03:36:49.883Z,12.67
2023-04-05T03:39:17.614Z,8.73
2023-04-05T03:41:45.306Z,9.20
2023-04-05T03:44:13.067Z,10.17
2023-04-05T03:46:41.000Z,11.30
2023-04-05T03:49:10.049Z,7.90
2023-04-05T03:51:37.820Z,8.10
2023-04-05T03:54:06.110Z,9.77
2023-04-05T03:56:34.075Z,14.27
2023-04-05T03:59:01.839Z,9.10
2023-04-05T04:01:29.636Z,10.50
2023-04-05T04:03:57.454Z,7.93
2023-04-05T04:06:27.159Z,11.20
2023-04-05T04:08:55.124Z,9.27
2023-04-05T04:11:22.846Z,10.70
2023-04-05T04:13:50.679Z,7.53
2023-04-05T04:16:18.767Z,10.90
2023-04-05T04:18:46.533Z,13.07
2023-04-05T04:21:17.053Z,9.70
2023-04-05T04:23:46.122Z,9.13
2023-04-05T04:26:14.833Z,11.83
2023-04-05T04:28:43.718Z,10.17
2023-04-05T04:31:13.635Z,8.93
2023-04-05T04:33:43.517Z,14.30
2023-04-05T04:36:13.663Z,8.37
2023-04-05T04:38:46.478Z,9.90
2023-04-05T04:41:26.681Z,9.17
2023-04-05T04:43:57.999Z,9.10
2023-04-05T04:46:27.196Z,8.33
2023-04-05T04:48:54.938Z,14.20
2023-04-05T04:51:22.633Z,10.17
2023-04-05T04:53:50.333Z,10.80
2023-04-05T04:56:19.364Z,10.83
2023-04-05T04:58:47.206Z,9.97
2023-04-05T05:01:15.003Z,10.23
2023-04-05T05:03:43.636Z,9.77
2023-04-05T05:06:11.362Z,10.77
2023-04-05T05:08:39.066Z,8.97
2023-04-05T05:11:08.302Z,10.40
2023-04-05T05:13:37.390Z,10.97
2023-04-05T05:16:05.544Z,12.33
2023-04-05T05:18:33.278Z,9.57
2023-04-05T05:21:01.046Z,9.30
2023-04-05T05:23:28.829Z,13.50
2023-04-05T05:25:59.338Z,8.80
2023-04-05T05:28:28.154Z,11.13
2023-04-05T05:30:57.222Z,9.30
2023-04-05T05:33:25.343Z,12.77
2023-04-05T05:35:53.102Z,10.00
2023-04-05T05:38:20.813Z,8.77
2023-04-05T05:40:48.544Z,10.77
2023-04-05T05:43:16.416Z,10.13
2023-04-05T05:45:44.109Z,9.83
2023-04-05T05:48:13.156Z,8.60
2023-04-05T05:50:42.085Z,10.73
2023-04-05T05:53:09.961Z,10.50
2023-04-05T05:55:38.274Z,12.03
2023-04-05T05:58:06.283Z,10.57
2023-04-05T06:00:34.138Z,15.63
2023-04-05T06:03:01.929Z,11.17
2023-04-05T06:05:31.031Z,10.27
2023-04-05T06:07:58.737Z,11.10
2023-04-05T06:10:27.126Z,11.53
2023-04-05T06:12:54.812Z,8.13
2023-04-05T06:15:22.621Z,10.13
2023-04-05T06:17:50.395Z,15.63
2023-04-05T06:20:18.223Z,12.70
2023-04-05T06:22:47.246Z,11.23
2023-04-05T06:25:15.919Z,9.43
2023-04-05T06:27:45.643Z,11.83
2023-04-05T06:30:14.523Z,11.10
2023-04-05T06:32:42.296Z,10.47
2023-04-05T06:35:10.391Z,9.43
2023-04-05T06:37:38.102Z,9.93
2023-04-05T06:40:08.866Z,10.27
2023-04-05T06:42:36.552Z,10.87
2023-04-05T06:45:05.012Z,9.90
2023-04-05T06:47:34.943Z,14.17
2023-04-05T06:50:03.181Z,13.10
2023-04-05T06:52:31.689Z,10.57
2023-04-05T06:54:59.599Z,11.23
2023-04-05T06:57:28.908Z,10.00
2023-04-05T06:59:56.611Z,12.67
2023-04-05T07:02:24.435Z,12.10
2023-04-05T07:04:53.065Z,14.80
2023-04-05T07:07:20.794Z,10.57
2023-04-05T07:09:48.516Z,13.20
2023-04-05T07:12:16.190Z,8.90
2023-04-05T07:14:45.245Z,9.53
2023-04-05T07:17:12.954Z,10.00
2023-04-05T07:19:40.669Z,9.43
2023-04-05T07:22:08.508Z,9.30
2023-04-05T07:24:36.714Z,11.00
2023-04-05T07:27:04.580Z,9.00
2023-04-05T07:29:32.304Z,9.87
2023-04-05T07:32:01.430Z,13.10
2023-04-05T07:34:29.257Z,8.70
2023-04-05T07:36:56.987Z,9.07
2023-04-05T07:39:24.687Z,10.27
2023-04-05T07:41:52.676Z,9.77
2023-04-05T07:44:20.717Z,12.23
2023-04-05T07:46:49.442Z,12.00
2023-04-05T07:49:18.597Z,11.77
2023-04-05T07:51:48.090Z,8.70
2023-04-05T07:54:15.822Z,11.30
2023-04-05T07:56:43.530Z,8.70
2023-04-05T07:59:12.416Z,8.50
2023-04-05T08:01:42.280Z,12.73
2023-04-05T08:04:10.223Z,8.97
2023-04-05T08:06:39.939Z,7.93
2023-04-05T08:09:09.024Z,9.23
2023-04-05T08:11:36.982Z,8.53
2023-04-05T08:14:04.693Z,12.17
2023-04-05T08:16:33.606Z,9.60
2023-04-05T08:19:01.423Z,11.03
2023-04-05T08:21:29.198Z,10.30
2023-04-05T08:23:59.019Z,9.10
2023-04-05T08:26:26.729Z,11.60
2023-04-05T08:28:54.456Z,9.87
2023-04-05T08:31:22.308Z,9.70
2023-04-05T08:33:50.058Z,9.57
2023-04-05T08:36:20.079Z,10.33
2023-04-05T08:38:47.862Z,8.83
2023-04-05T08:41:19.842Z,10.30
2023-04-05T08:43:57.681Z,7.70
2023-04-05T08:46:26.166Z,10.20
2023-04-05T08:48:54.088Z,10.80
2023-04-05T08:51:22.600Z,8.07
2023-04-05T08:53:50.533Z,7.73
2023-04-05T08:56:22.459Z,11.70
2023-04-05T08:59:02.803Z,9.20
2023-04-05T09:01:33.202Z,7.13
2023-04-05T09:04:06.088Z,6.70
2023-04-05T09:06:34.173Z,6.10
2023-04-05T09:09:02.227Z,7.73
2023-04-05T09:11:31.574Z,6.20
2023-04-05T09:13:59.358Z,6.60
2023-04-05T09:16:28.263Z,10.20
2023-04-05T09:18:55.988Z,7.33
2023-04-05T09:21:23.860Z,6.07
2023-04-05T09:23:54.190Z,8.23
2023-04-05T09:26:23.349Z,7.10
2023-04-05T09:28:52.485Z,7.43
2023-04-05T09:31:34.027Z,6.90
2023-04-05T09:34:03.948Z,7.50
2023-04-05T09:36:34.011Z,7.27
2023-04-05T09:39:09.078Z,7.57
2023-04-05T09:41:37.679Z,10.30
2023-04-05T09:44:07.114Z,7.00
2023-04-05T09:46:37.928Z,6.00
2023-04-05T09:49:07.056Z,6.23
2023-04-05T09:51:36.336Z,7.27
2023-04-05T09:54:06.058Z,12.53
2023-04-05T09:56:36.079Z,6.80
2023-04-05T09:59:07.401Z,7.57
2023-04-05T10:01:35.460Z,5.90
2023-04-05T10:04:03.527Z,7.37
2023-04-05T10:06:38.542Z,7.67
2023-04-05T10:09:07.073Z,6.03
2023-04-05T10:11:35.703Z,7.60
2023-04-05T10:14:06.454Z,5.90
2023-04-05T10:16:38.007Z,7.83
2023-04-05T10:19:12.998Z,6.83
2023-04-05T10:21:44.272Z,8.87
2023-04-05T10:24:19.799Z,7.17
2023-04-05T10:26:57.233Z,6.25
2023-04-05T10:29:35.916Z,5.80
2023-04-05T10:32:10.941Z,6.80
2023-04-05T10:34:44.304Z,6.30
2023-04-05T10:37:22.841Z,6.13
2023-04-05T10:39:51.201Z,6.90
2023-04-05T10:42:22.527Z,6.63
2023-04-05T10:44:55.557Z,6.70
2023-04-05T10:47:27.301Z,6.43
2023-04-05T10:49:57.839Z,6.70
2023-04-05T10:52:27.323Z,6.33
2023-04-05T10:54:57.885Z,6.40
2023-04-05T10:57:26.442Z,7.03
2023-04-05T10:59:56.295Z,6.50
2023-04-05T11:02:24.326Z,6.13
2023-04-05T11:04:56.715Z,5.83
2023-04-05T11:07:24.586Z,7.97
2023-04-05T11:09:54.022Z,7.37
2023-04-05T11:12:41.800Z,6.20
2023-04-05T11:15:32.314Z,7.83
2023-04-05T11:18:08.300Z,7.90
2023-04-05T11:20:52.271Z,6.30
2023-04-05T11:23:21.522Z,6.27
2023-04-05T11:25:52.639Z,7.47
2023-04-05T11:28:31.854Z,6.50
2023-04-05T11:31:14.672Z,8.20
2023-04-05T11:33:59.962Z,6.40
2023-04-05T11:36:37.799Z,7.50
2023-04-05T11:39:29.089Z,6.13
2023-04-05T11:42:02.614Z,7.17
2023-04-05T11:44:40.157Z,7.37
2023-04-05T11:47:09.381Z,6.30
2023-04-05T11:49:38.161Z,8.60
2023-04-05T11:52:16.596Z,7.50
2023-04-05T11:54:49.134Z,7.70
2023-04-05T11:57:19.909Z,8.03
2023-04-05T11:59:47.757Z,6.73
2023-04-05T12:02:18.500Z,5.30
2023-04-05T12:04:54.214Z,7.30
2023-04-05T12:07:21.932Z,6.60
2023-04-05T12:10:08.648Z,6.70
2023-04-05T12:12:38.404Z,10.20
2023-04-05T12:15:08.481Z,7.20
2023-04-05T12:17:45.628Z,7.23
2023-04-05T12:20:15.118Z,5.93
2023-04-05T12:22:45.023Z,9.73
2023-04-05T12:25:14.063Z,5.97
2023-04-05T12:27:42.345Z,6.03
2023-04-05T12:30:16.163Z,9.40
2023-04-05T12:32:51.051Z,5.80
2023-04-05T12:35:20.357Z,7.13
2023-04-05T12:37:48.499Z,7.60
2023-04-05T12:40:22.210Z,6.00
2023-04-05T12:42:50.368Z,10.00
2023-04-05T12:45:18.537Z,7.73
2023-04-05T12:47:52.412Z,9.93
2023-04-05T12:50:26.044Z,6.27
2023-04-05T12:52:55.061Z,7.73
2023-04-05T12:55:22.902Z,6.93
2023-04-05T12:57:52.225Z,6.93
2023-04-05T13:00:24.361Z,6.97
2023-04-05T13:02:54.821Z,5.77
2023-04-05T13:05:23.738Z,8.23
2023-04-05T13:07:51.956Z,5.67
2023-04-05T13:10:20.302Z,7.30
2023-04-05T13:12:48.310Z,6.40
2023-04-05T13:15:16.515Z,6.80
2023-04-05T13:17:49.476Z,10.80
2023-04-05T13:20:19.724Z,7.10
2023-04-05T13:22:47.998Z,7.30
2023-04-05T13:25:16.287Z,5.97
2023-04-05T13:27:44.760Z,6.40
2023-04-05T13:30:13.055Z,5.93
2023-04-05T13:32:41.419Z,7.73
2023-04-05T13:35:10.088Z,6.37
2023-04-05T13:37:39.368Z,7.57
2023-04-05T13:40:08.568Z,8.50
2023-04-05T13:42:36.341Z,7.63
2023-04-05T13:45:04.305Z,7.33
2023-04-05T13:47:32.053Z,7.80
2023-04-05T13:49:59.744Z,5.60
2023-04-05T13:52:27.496Z,5.70
2023-04-05T13:55:02.157Z,6.80
2023-04-05T13:57:31.365Z,7.10
2023-04-05T13:59:59.290Z,8.80
2023-04-05T14:02:27.288Z,7.63
2023-04-05T14:04:55.740Z,6.50
2023-04-05T14:07:24.770Z,8.10
2023-04-05T14:09:52.488Z,8.43
2023-04-05T14:12:21.616Z,8.77
2023-04-05T14:14:49.305Z,6.70
2023-04-05T14:17:16.977Z,6.30
2023-04-05T14:19:44.802Z,8.03
2023-04-05T14:22:12.563Z,6.80
2023-04-05T14:24:49.614Z,7.80
2023-04-05T14:27:17.322Z,6.20
2023-04-05T14:29:46.512Z,6.73
2023-04-05T14:32:14.312Z,7.53
2023-04-05T14:34:42.034Z,7.90
2023-04-05T14:37:09.944Z,6.23
2023-04-05T14:39:37.633Z,8.97
2023-04-05T14:42:05.640Z,7.30
2023-04-05T14:44:33.322Z,6.73
2023-04-05T14:47:02.746Z,7.23
2023-04-05T14:49:30.459Z,6.33
2023-04-05T14:51:58.301Z,6.90
2023-04-05T14:54:26.027Z,7.73
2023-04-05T14:56:53.735Z,9.00
2023-04-05T14:59:21.541Z,7.57
2023-04-05T15:01:49.257Z,7.43
2023-04-05T15:04:18.498Z,5.53
2023-04-05T15:06:46.337Z,6.10
2023-04-05T15:09:14.090Z,6.93
2023-04-05T15:11:41.854Z,8.53
2023-04-05T15:14:13.414Z,6.60
2023-04-05T15:16:46.039Z,6.77
2023-04-05T15:19:13.890Z,7.60
2023-04-05T15:21:43.895Z,8.93
2023-04-05T15:24:12.106Z,7.97
2023-04-05T15:26:40.822Z,8.13
2023-04-05T15:29:08.516Z,6.17
2023-04-05T15:31:36.264Z,6.90
2023-04-05T15:34:04.430Z,5.93
2023-04-05T15:36:32.656Z,6.23
2023-04-05T15:39:01.753Z,7.87
2023-04-05T15:41:30.364Z,7.10
2023-04-05T15:43:58.182Z,9.80
2023-04-05T15:46:26.190Z,9.93
2023-04-05T15:48:53.872Z,6.23
2023-04-05T15:51:21.586Z,7.90
2023-04-05T15:53:49.372Z,8.10
2023-04-05T15:56:19.013Z,6.60
2023-04-05T15:58:46.754Z,8.83
2023-04-05T16:01:14.474Z,6.53
2023-04-05T16:03:42.813Z,14.83
2023-04-05T16:06:11.413Z,8.70
2023-04-05T16:08:39.144Z,10.90
2023-04-05T16:11:08.434Z,9.33
2023-04-05T16:13:37.551Z,6.43
2023-04-05T16:16:06.666Z,10.47
2023-04-05T16:18:34.417Z,7.70
2023-04-05T16:21:02.158Z,7.37
2023-04-05T16:23:30.020Z,6.17
2023-04-05T16:25:57.701Z,7.03
2023-04-05T16:28:25.518Z,7.30
2023-04-05T16:30:55.700Z,6.10
2023-04-05T16:33:23.422Z,7.20
2023-04-05T16:35:51.358Z,9.20
2023-04-05T16:38:19.091Z,6.07
2023-04-05T16:40:46.877Z,8.07
2023-04-05T16:43:14.565Z,6.43
2023-04-05T16:45:43.925Z,7.20
2023-04-05T16:48:14.636Z,6.53
2023-04-05T16:50:42.526Z,9.07
2023-04-05T16:53:11.407Z,6.70
2023-04-05T16:55:39.260Z,7.00
2023-04-05T16:58:06.964Z,6.17
2023-04-05T17:00:34.708Z,8.60
2023-04-05T17:03:02.503Z,6.73
2023-04-05T17:05:31.567Z,7.73
2023-04-05T17:07:59.237Z,7.13
2023-04-05T17:10:27.014Z,7.10
2023-04-05T17:12:56.107Z,6.53
2023-04-05T17:15:23.909Z,8.23
2023-04-05T17:17:51.790Z,7.70
2023-04-05T17:20:19.623Z,8.43
2023-04-05T17:22:50.163Z,8.40
2023-04-05T17:25:17.981Z,9.70
2023-04-05T17:27:45.706Z,12.20
2023-04-05T17:30:14.426Z,14.03
2023-04-05T17:32:42.162Z,12.43
2023-04-05T17:35:10.626Z,7.63
2023-04-05T17:37:38.328Z,8.67
2023-04-05T17:40:08.771Z,7.40
2023-04-05T17:42:36.538Z,7.40
2023-04-05T17:45:04.544Z,8.00
2023-04-05T17:47:32.349Z,7.30
2023-04-05T17:50:00.267Z,6.40
2023-04-05T17:52:28.156Z,7.10
2023-04-05T17:54:55.938Z,13.00
2023-04-05T17:57:25.283Z,7.23
2023-04-05T17:59:53.023Z,9.07
2023-04-05T18:02:20.753Z,7.97
2023-04-05T18:04:48.532Z,7.70
2023-04-05T18:07:16.238Z,10.10
2023-04-05T18:09:44.030Z,14.83
2023-04-05T18:12:11.780Z,7.40
2023-04-05T18:14:40.990Z,8.90
2023-04-05T18:17:08.737Z,9.40
2023-04-05T18:19:36.692Z,9.50
2023-04-05T18:22:04.428Z,9.23
2023-04-05T18:24:32.418Z,12.20
2023-04-05T18:27:00.184Z,10.80
2023-04-05T18:29:30.470Z,10.07
2023-04-05T18:31:59.548Z,9.37
2023-04-05T18:34:27.421Z,9.03
2023-04-05T18:36:55.119Z,10.03
2023-04-05T18:39:25.107Z,11.30
2023-04-05T18:41:54.843Z,11.20
2023-04-05T18:44:22.552Z,10.17
2023-04-05T18:46:50.463Z,7.23
2023-04-05T18:49:19.553Z,7.97
2023-04-05T18:51:48.696Z,8.20
2023-04-05T18:54:18.257Z,8.17
2023-04-05T18:56:46.128Z,8.00
2023-04-05T18:59:13.871Z,8.80
2023-04-05T19:01:41.652Z,8.97
2023-04-05T19:04:09.533Z,12.57
2023-04-05T19:06:38.631Z,7.40
2023-04-05T19:09:06.516Z,10.67
2023-04-05T19:11:34.493Z,8.90
2023-04-05T19:14:03.744Z,10.80
2023-04-05T19:16:31.629Z,11.63
2023-04-05T19:18:59.479Z,7.30
2023-04-05T19:21:27.443Z,7.27
2023-04-05T19:23:57.443Z,9.20
2023-04-05T19:26:25.362Z,8.27
2023-04-05T19:28:53.092Z,7.70
2023-04-05T19:31:20.817Z,12.17
2023-04-05T19:33:50.077Z,7.70
2023-04-05T19:36:17.839Z,9.40
2023-04-05T19:38:45.675Z,9.00
2023-04-05T19:41:14.850Z,9.40
2023-04-05T19:43:42.579Z,7.47
2023-04-05T19:46:11.275Z,10.40
2023-04-05T19:48:40.564Z,11.23
2023-04-05T19:51:09.026Z,9.60
2023-04-05T19:53:41.581Z,9.53
2023-04-05T19:56:16.293Z,8.73
2023-04-05T19:58:44.729Z,8.52
2023-04-05T20:01:12.511Z,9.53
2023-04-05T20:03:41.940Z,8.00
2023-04-05T20:06:11.437Z,9.73
2023-04-05T20:08:40.922Z,9.30
2023-04-05T20:11:12.698Z,8.30
2023-04-05T20:13:43.990Z,8.97
2023-04-05T20:16:13.343Z,8.50
2023-04-05T20:18:41.266Z,8.90
2023-04-05T20:21:09.029Z,7.70
2023-04-05T20:23:39.036Z,9.10
2023-04-05T20:26:07.918Z,7.30
2023-04-05T20:28:38.638Z,9.27
2023-04-05T20:31:09.432Z,8.47
2023-04-05T20:33:46.780Z,8.40
2023-04-05T20:36:17.329Z,8.13
2023-04-05T20:38:46.406Z,7.90
2023-04-05T20:41:15.280Z,11.23
2023-04-05T20:43:43.341Z,8.20
2023-04-05T20:46:12.913Z,10.10
2023-04-05T20:48:40.866Z,13.17
2023-04-05T20:51:09.509Z,10.10
2023-04-05T20:53:37.947Z,14.50
2023-04-05T20:56:06.984Z,11.73
2023-04-05T20:58:35.097Z,10.80
2023-04-05T21:01:03.872Z,9.20
2023-04-05T21:03:35.847Z,10.60
2023-04-05T21:06:04.935Z,11.27
2023-04-05T21:08:33.200Z,9.60
2023-04-05T21:11:01.111Z,10.00
2023-04-05T21:13:29.218Z,15.67
2023-04-05T21:15:57.922Z,10.80
2023-04-05T21:18:26.966Z,14.43
2023-04-05T21:20:56.142Z,15.83
2023-04-05T21:23:26.983Z,11.93
2023-04-05T21:25:55.449Z,11.33
2023-04-05T21:28:23.754Z,10.93
2023-04-05T21:30:51.559Z,11.20
2023-04-05T21:33:19.948Z,14.30
2023-04-05T21:35:47.838Z,14.63
2023-04-05T21:38:16.919Z,11.93
2023-04-05T21:40:45.361Z,10.20
2023-04-05T21:43:13.433Z,11.37
2023-04-05T21:45:41.219Z,10.10
2023-04-05T21:48:09.000Z,11.23
2023-04-05T21:50:37.221Z,11.20
2023-04-05T21:53:05.247Z,12.97
2023-04-05T21:55:34.309Z,14.20
2023-04-05T21:58:02.045Z,13.40
2023-04-05T22:00:29.819Z,12.40
2023-04-05T22:02:57.607Z,12.30
2023-04-05T22:05:34.556Z,11.23
2023-04-05T22:08:05.987Z,11.20
2023-04-05T22:10:35.835Z,10.63
2023-04-05T22:13:03.612Z,12.03
2023-04-05T22:15:31.321Z,10.83
2023-04-05T22:17:59.235Z,12.57
2023-04-05T22:20:27.332Z,10.93
2023-04-05T22:22:55.690Z,11.30
2023-04-05T22:25:23.383Z,13.60
2023-04-05T22:27:52.517Z,11.80
2023-04-05T22:30:22.662Z,10.57
2023-04-05T22:32:51.723Z,11.03
2023-04-05T22:35:19.625Z,16.93
2023-04-05T22:37:47.332Z,9.37
2023-04-05T22:40:15.257Z,9.80
2023-04-05T22:42:43.039Z,13.00
2023-04-05T22:45:12.427Z,9.87
2023-04-05T22:47:40.567Z,10.57
2023-04-05T22:50:09.301Z,9.80
2023-04-05T22:52:36.988Z,10.37
2023-04-05T22:55:05.635Z,14.63
2023-04-05T22:57:33.409Z,13.00
2023-04-05T23:00:01.227Z,15.97
2023-04-05T23:02:30.528Z,11.17
2023-04-05T23:04:58.611Z,12.20
2023-04-05T23:07:26.689Z,14.53
2023-04-05T23:09:54.488Z,10.00
2023-04-05T23:12:22.404Z,10.93
2023-04-05T23:14:50.886Z,9.60
2023-04-05T23:17:18.675Z,10.73
2023-04-05T23:19:47.787Z,11.97
2023-04-05T23:22:15.616Z,11.00
2023-04-05T23:24:43.320Z,8.60
2023-04-05T23:27:11.047Z,10.40
2023-04-05T23:29:38.753Z,10.50
2023-04-05T23:32:06.859Z,7.93
2023-04-05T23:34:34.590Z,11.27
2023-04-05T23:37:03.608Z,9.47
2023-04-05T23:39:31.327Z,8.67
2023-04-05T23:41:59.152Z,9.83
2023-04-05T23:44:27.011Z,10.00
2023-04-05T23:46:54.826Z,8.10
2023-04-05T23:49:23.004Z,9.30
2023-04-05T23:51:51.094Z,9.50
2023-04-05T23:54:20.418Z,9.63
2023-04-05T23:56:48.210Z,11.57
2023-04-05T23:59:16.550Z,8.97
